sensor_id;sensor_type;location;lat;lon;timestamp;temperature;humidity
23305;DHT22;11821;51.456;8.844;2022-11-15T00:02:00;11.20;99.90
23305;DHT22;11821;51.456;8.844;2022-11-15T00:04:45;11.30;99.90
23305;DHT22;11821;51.456;8.844;2022-11-15T00:07:30;11.20;99.90
23305;DHT22;11821;51.456;8.844;2022-11-15T00:10:15;11.20;99.90
23305;DHT22;11821;51.456;8.844;2022-11-15T00:12:59;11.30;99.90
23305;DHT22;11821;51.456;8.844;2022-11-15T00:15:44;11.30;99.90
23305;DHT22;11821;51.456;8.844;2022-11-15T00:18:29;11.40;99.90
23305;DHT22;11821;51.456;8.844;2022-11-15T00:21:15;11.50;99.90
23305;DHT22;11821;51.456;8.844;2022-11-15T00:24:00;11.40;99.90
23305;DHT22;11821;51.456;8.844;2022-11-15T00:26:44;11.50;99.90
23305;DHT22;11821;51.456;8.844;2022-11-15T00:29:29;11.60;99.90
23305;DHT22;11821;51.456;8.844;2022-11-15T00:32:13;11.60;99.90
23305;DHT22;11821;51.456;8.844;2022-11-15T00:34:58;11.70;99.90
23305;DHT22;11821;51.456;8.844;2022-11-15T00:37:42;11.70;99.90
23305;DHT22;11821;51.456;8.844;2022-11-15T00:40:27;11.70;99.90
23305;DHT22;11821;51.456;8.844;2022-11-15T00:43:12;11.80;99.90
23305;DHT22;11821;51.456;8.844;2022-11-15T00:45:57;11.80;99.90
23305;DHT22;11821;51.456;8.844;2022-11-15T00:48:42;11.80;99.90
23305;DHT22;11821;51.456;8.844;2022-11-15T00:51:27;11.80;99.90
23305;DHT22;11821;51.456;8.844;2022-11-15T00:54:12;11.80;99.90
23305;DHT22;11821;51.456;8.844;2022-11-15T00:56:56;11.70;99.90
23305;DHT22;11821;51.456;8.844;2022-11-15T00:59:41;11.70;99.90
23305;DHT22;11821;51.456;8.844;2022-11-15T01:02:26;11.70;99.90
23305;DHT22;11821;51.456;8.844;2022-11-15T01:05:12;11.70;99.90
23305;DHT22;11821;51.456;8.844;2022-11-15T01:07:56;11.70;99.90
23305;DHT22;11821;51.456;8.844;2022-11-15T01:10:41;11.70;99.90
23305;DHT22;11821;51.456;8.844;2022-11-15T01:13:26;11.70;99.90
23305;DHT22;11821;51.456;8.844;2022-11-15T01:16:16;11.50;99.90
23305;DHT22;11821;51.456;8.844;2022-11-15T01:19:03;11.60;99.90
23305;DHT22;11821;51.456;8.844;2022-11-15T01:21:51;11.60;99.90
23305;DHT22;11821;51.456;8.844;2022-11-15T01:24:36;11.60;99.90
23305;DHT22;11821;51.456;8.844;2022-11-15T01:27:21;11.60;99.90
23305;DHT22;11821;51.456;8.844;2022-11-15T01:30:06;11.60;99.90
23305;DHT22;11821;51.456;8.844;2022-11-15T01:32:52;11.70;99.90
23305;DHT22;11821;51.456;8.844;2022-11-15T01:35:39;11.70;99.90
23305;DHT22;11821;51.456;8.844;2022-11-15T01:38:24;11.60;99.90
23305;DHT22;11821;51.456;8.844;2022-11-15T01:41:21;11.60;99.90
23305;DHT22;11821;51.456;8.844;2022-11-15T01:44:34;11.60;99.90
23305;DHT22;11821;51.456;8.844;2022-11-15T01:47:36;11.60;99.90
23305;DHT22;11821;51.456;8.844;2022-11-15T01:50:32;11.60;99.90
23305;DHT22;11821;51.456;8.844;2022-11-15T01:53:17;11.60;99.90
23305;DHT22;11821;51.456;8.844;2022-11-15T01:56:06;11.60;99.90
23305;DHT22;11821;51.456;8.844;2022-11-15T01:58:53;11.60;99.90
23305;DHT22;11821;51.456;8.844;2022-11-15T02:01:40;11.70;99.90
23305;DHT22;11821;51.456;8.844;2022-11-15T02:04:31;11.70;99.90
23305;DHT22;11821;51.456;8.844;2022-11-15T02:07:18;11.80;99.90
23305;DHT22;11821;51.456;8.844;2022-11-15T02:10:17;11.80;99.90
23305;DHT22;11821;51.456;8.844;2022-11-15T02:13:02;11.80;99.90
23305;DHT22;11821;51.456;8.844;2022-11-15T02:28:44;11.80;99.90
23305;DHT22;11821;51.456;8.844;2022-11-15T02:37:53;11.80;99.90
23305;DHT22;11821;51.456;8.844;2022-11-15T02:41:00;11.80;99.90
23305;DHT22;11821;51.456;8.844;2022-11-15T02:44:52;11.80;99.90
23305;DHT22;11821;51.456;8.844;2022-11-15T02:47:17;11.80;99.90
23305;DHT22;11821;51.456;8.844;2022-11-15T02:50:10;11.80;99.90
23305;DHT22;11821;51.456;8.844;2022-11-15T02:52:55;11.80;99.90
23305;DHT22;11821;51.456;8.844;2022-11-15T02:55:45;11.90;99.90
23305;DHT22;11821;51.456;8.844;2022-11-15T03:02:00;11.80;99.90
23305;DHT22;11821;51.456;8.844;2022-11-15T03:05:18;11.90;99.90
23305;DHT22;11821;51.456;8.844;2022-11-15T03:11:24;11.80;99.90
23305;DHT22;11821;51.456;8.844;2022-11-15T03:14:25;11.80;99.90
23305;DHT22;11821;51.456;8.844;2022-11-15T03:20:06;11.90;99.90
23305;DHT22;11821;51.456;8.844;2022-11-15T03:22:55;11.90;99.90
23305;DHT22;11821;51.456;8.844;2022-11-15T03:25:45;11.90;99.90
23305;DHT22;11821;51.456;8.844;2022-11-15T03:28:38;11.90;99.90
23305;DHT22;11821;51.456;8.844;2022-11-15T03:31:28;11.90;99.90
23305;DHT22;11821;51.456;8.844;2022-11-15T03:34:40;11.90;99.90
23305;DHT22;11821;51.456;8.844;2022-11-15T03:40:34;12.00;99.90
23305;DHT22;11821;51.456;8.844;2022-11-15T03:46:37;12.00;99.90
23305;DHT22;11821;51.456;8.844;2022-11-15T03:49:30;12.00;99.90
23305;DHT22;11821;51.456;8.844;2022-11-15T03:52:18;11.90;99.90
23305;DHT22;11821;51.456;8.844;2022-11-15T03:55:05;12.00;99.90
23305;DHT22;11821;51.456;8.844;2022-11-15T03:57:53;12.00;99.90
23305;DHT22;11821;51.456;8.844;2022-11-15T04:00:38;12.10;99.90
23305;DHT22;11821;51.456;8.844;2022-11-15T04:03:23;12.20;99.90
23305;DHT22;11821;51.456;8.844;2022-11-15T04:06:07;12.10;99.90
23305;DHT22;11821;51.456;8.844;2022-11-15T04:08:52;12.10;99.90
23305;DHT22;11821;51.456;8.844;2022-11-15T04:11:36;12.10;99.90
23305;DHT22;11821;51.456;8.844;2022-11-15T04:14:21;12.20;99.90
23305;DHT22;11821;51.456;8.844;2022-11-15T04:17:05;12.40;99.90
23305;DHT22;11821;51.456;8.844;2022-11-15T04:19:50;12.40;99.90
23305;DHT22;11821;51.456;8.844;2022-11-15T04:22:55;12.30;99.90
23305;DHT22;11821;51.456;8.844;2022-11-15T04:26:02;12.30;99.90
23305;DHT22;11821;51.456;8.844;2022-11-15T04:28:48;12.50;99.90
23305;DHT22;11821;51.456;8.844;2022-11-15T04:31:51;12.50;99.90
23305;DHT22;11821;51.456;8.844;2022-11-15T04:34:36;12.50;99.90
23305;DHT22;11821;51.456;8.844;2022-11-15T04:37:23;12.60;99.90
23305;DHT22;11821;51.456;8.844;2022-11-15T04:40:08;12.60;99.90
23305;DHT22;11821;51.456;8.844;2022-11-15T04:42:52;12.60;99.90
23305;DHT22;11821;51.456;8.844;2022-11-15T04:45:37;12.60;99.90
23305;DHT22;11821;51.456;8.844;2022-11-15T04:48:22;12.70;99.90
23305;DHT22;11821;51.456;8.844;2022-11-15T04:51:06;12.70;99.90
23305;DHT22;11821;51.456;8.844;2022-11-15T04:53:51;12.70;99.90
23305;DHT22;11821;51.456;8.844;2022-11-15T04:56:36;12.70;99.90
23305;DHT22;11821;51.456;8.844;2022-11-15T04:59:20;12.70;99.90
23305;DHT22;11821;51.456;8.844;2022-11-15T05:02:05;12.70;99.90
23305;DHT22;11821;51.456;8.844;2022-11-15T05:04:49;12.70;99.90
23305;DHT22;11821;51.456;8.844;2022-11-15T05:07:34;12.70;99.90
23305;DHT22;11821;51.456;8.844;2022-11-15T05:10:19;12.70;99.90
23305;DHT22;11821;51.456;8.844;2022-11-15T05:13:03;12.70;99.90
23305;DHT22;11821;51.456;8.844;2022-11-15T05:15:48;12.70;99.90
23305;DHT22;11821;51.456;8.844;2022-11-15T05:18:32;12.80;99.90
23305;DHT22;11821;51.456;8.844;2022-11-15T05:21:18;12.70;99.90
23305;DHT22;11821;51.456;8.844;2022-11-15T05:24:03;12.80;99.90
23305;DHT22;11821;51.456;8.844;2022-11-15T05:26:48;12.80;99.90
23305;DHT22;11821;51.456;8.844;2022-11-15T05:29:32;12.80;99.90
23305;DHT22;11821;51.456;8.844;2022-11-15T05:32:17;12.80;99.90
23305;DHT22;11821;51.456;8.844;2022-11-15T05:35:02;12.80;99.90
23305;DHT22;11821;51.456;8.844;2022-11-15T05:37:49;12.80;99.90
23305;DHT22;11821;51.456;8.844;2022-11-15T05:40:34;12.70;99.90
23305;DHT22;11821;51.456;8.844;2022-11-15T05:43:20;12.60;99.90
23305;DHT22;11821;51.456;8.844;2022-11-15T05:46:05;12.60;99.90
23305;DHT22;11821;51.456;8.844;2022-11-15T05:48:51;12.60;99.90
23305;DHT22;11821;51.456;8.844;2022-11-15T05:51:37;12.60;99.90
23305;DHT22;11821;51.456;8.844;2022-11-15T05:54:23;12.60;99.90
23305;DHT22;11821;51.456;8.844;2022-11-15T05:57:08;12.60;99.90
23305;DHT22;11821;51.456;8.844;2022-11-15T05:59:53;12.60;99.90
23305;DHT22;11821;51.456;8.844;2022-11-15T06:02:38;12.50;99.90
23305;DHT22;11821;51.456;8.844;2022-11-15T06:05:23;12.50;99.90
23305;DHT22;11821;51.456;8.844;2022-11-15T06:08:07;12.50;99.90
23305;DHT22;11821;51.456;8.844;2022-11-15T06:10:52;12.50;99.90
23305;DHT22;11821;51.456;8.844;2022-11-15T06:13:36;12.60;99.90
23305;DHT22;11821;51.456;8.844;2022-11-15T06:16:21;12.60;99.90
23305;DHT22;11821;51.456;8.844;2022-11-15T06:19:06;12.60;99.90
23305;DHT22;11821;51.456;8.844;2022-11-15T06:21:51;12.50;99.90
23305;DHT22;11821;51.456;8.844;2022-11-15T06:24:35;12.50;99.90
23305;DHT22;11821;51.456;8.844;2022-11-15T06:27:20;12.50;99.90
23305;DHT22;11821;51.456;8.844;2022-11-15T06:30:05;12.50;99.90
23305;DHT22;11821;51.456;8.844;2022-11-15T06:32:50;12.50;99.90
23305;DHT22;11821;51.456;8.844;2022-11-15T06:35:36;12.40;99.90
23305;DHT22;11821;51.456;8.844;2022-11-15T06:38:21;12.40;99.90
23305;DHT22;11821;51.456;8.844;2022-11-15T06:41:07;12.50;99.90
23305;DHT22;11821;51.456;8.844;2022-11-15T06:43:53;12.50;99.90
23305;DHT22;11821;51.456;8.844;2022-11-15T06:46:37;12.40;99.90
23305;DHT22;11821;51.456;8.844;2022-11-15T06:49:22;12.40;99.90
23305;DHT22;11821;51.456;8.844;2022-11-15T06:52:06;12.40;99.90
23305;DHT22;11821;51.456;8.844;2022-11-15T06:54:51;12.40;99.90
23305;DHT22;11821;51.456;8.844;2022-11-15T06:57:36;12.40;99.90
23305;DHT22;11821;51.456;8.844;2022-11-15T07:00:22;12.50;99.90
23305;DHT22;11821;51.456;8.844;2022-11-15T07:03:07;12.50;99.90
23305;DHT22;11821;51.456;8.844;2022-11-15T07:05:56;12.40;99.90
23305;DHT22;11821;51.456;8.844;2022-11-15T07:08:41;12.40;99.90
23305;DHT22;11821;51.456;8.844;2022-11-15T07:11:25;12.40;99.90
23305;DHT22;11821;51.456;8.844;2022-11-15T07:14:11;12.40;99.90
23305;DHT22;11821;51.456;8.844;2022-11-15T07:16:55;12.40;99.90
23305;DHT22;11821;51.456;8.844;2022-11-15T07:19:40;12.30;99.90
23305;DHT22;11821;51.456;8.844;2022-11-15T07:22:24;12.30;99.90
23305;DHT22;11821;51.456;8.844;2022-11-15T07:25:09;12.30;99.90
23305;DHT22;11821;51.456;8.844;2022-11-15T07:27:55;12.30;99.90
23305;DHT22;11821;51.456;8.844;2022-11-15T07:30:44;12.30;99.90
23305;DHT22;11821;51.456;8.844;2022-11-15T07:33:35;12.30;99.90
23305;DHT22;11821;51.456;8.844;2022-11-15T07:36:20;12.40;99.90
23305;DHT22;11821;51.456;8.844;2022-11-15T07:39:04;12.40;99.90
23305;DHT22;11821;51.456;8.844;2022-11-15T07:41:49;12.40;99.90
23305;DHT22;11821;51.456;8.844;2022-11-15T07:44:54;12.40;99.90
23305;DHT22;11821;51.456;8.844;2022-11-15T07:47:38;12.50;99.90
23305;DHT22;11821;51.456;8.844;2022-11-15T07:50:24;12.50;99.90
23305;DHT22;11821;51.456;8.844;2022-11-15T07:53:09;12.60;99.90
23305;DHT22;11821;51.456;8.844;2022-11-15T07:55:54;12.60;99.90
23305;DHT22;11821;51.456;8.844;2022-11-15T07:58:39;12.60;99.90
23305;DHT22;11821;51.456;8.844;2022-11-15T08:01:24;12.60;99.90
23305;DHT22;11821;51.456;8.844;2022-11-15T08:04:10;12.60;99.90
23305;DHT22;11821;51.456;8.844;2022-11-15T08:06:55;12.60;99.90
23305;DHT22;11821;51.456;8.844;2022-11-15T08:09:41;12.60;99.90
23305;DHT22;11821;51.456;8.844;2022-11-15T08:12:26;12.60;99.90
23305;DHT22;11821;51.456;8.844;2022-11-15T08:15:11;12.60;99.90
23305;DHT22;11821;51.456;8.844;2022-11-15T08:17:57;12.60;99.90
23305;DHT22;11821;51.456;8.844;2022-11-15T08:20:43;12.50;99.90
23305;DHT22;11821;51.456;8.844;2022-11-15T08:23:28;12.50;99.90
23305;DHT22;11821;51.456;8.844;2022-11-15T08:26:12;12.50;99.90
23305;DHT22;11821;51.456;8.844;2022-11-15T08:28:57;12.50;99.90
23305;DHT22;11821;51.456;8.844;2022-11-15T08:31:41;12.50;99.90
23305;DHT22;11821;51.456;8.844;2022-11-15T08:34:26;12.50;99.90
23305;DHT22;11821;51.456;8.844;2022-11-15T08:37:11;12.50;99.90
23305;DHT22;11821;51.456;8.844;2022-11-15T08:39:56;12.50;99.90
23305;DHT22;11821;51.456;8.844;2022-11-15T08:42:40;12.50;99.90
23305;DHT22;11821;51.456;8.844;2022-11-15T08:45:25;12.50;99.90
23305;DHT22;11821;51.456;8.844;2022-11-15T08:48:09;12.60;99.90
23305;DHT22;11821;51.456;8.844;2022-11-15T08:50:55;12.60;99.90
23305;DHT22;11821;51.456;8.844;2022-11-15T08:53:41;12.70;99.90
23305;DHT22;11821;51.456;8.844;2022-11-15T08:56:26;12.70;99.90
23305;DHT22;11821;51.456;8.844;2022-11-15T08:59:11;12.80;99.90
23305;DHT22;11821;51.456;8.844;2022-11-15T09:01:55;12.90;99.90
23305;DHT22;11821;51.456;8.844;2022-11-15T09:04:41;12.90;99.90
23305;DHT22;11821;51.456;8.844;2022-11-15T09:07:26;12.90;99.90
23305;DHT22;11821;51.456;8.844;2022-11-15T09:10:14;13.00;99.90
23305;DHT22;11821;51.456;8.844;2022-11-15T09:12:59;13.00;99.90
23305;DHT22;11821;51.456;8.844;2022-11-15T09:15:47;13.10;99.90
23305;DHT22;11821;51.456;8.844;2022-11-15T09:18:31;13.20;99.90
23305;DHT22;11821;51.456;8.844;2022-11-15T09:21:16;13.50;99.90
23305;DHT22;11821;51.456;8.844;2022-11-15T09:24:00;13.70;99.90
23305;DHT22;11821;51.456;8.844;2022-11-15T09:26:45;13.80;99.90
23305;DHT22;11821;51.456;8.844;2022-11-15T09:29:30;14.00;99.90
23305;DHT22;11821;51.456;8.844;2022-11-15T09:32:14;14.10;99.90
23305;DHT22;11821;51.456;8.844;2022-11-15T09:34:59;14.20;99.90
23305;DHT22;11821;51.456;8.844;2022-11-15T09:37:43;14.30;99.90
23305;DHT22;11821;51.456;8.844;2022-11-15T09:40:30;14.30;99.90
23305;DHT22;11821;51.456;8.844;2022-11-15T09:46:23;14.20;99.90
23305;DHT22;11821;51.456;8.844;2022-11-15T09:49:09;14.20;99.90
23305;DHT22;11821;51.456;8.844;2022-11-15T09:52:04;14.20;99.90
23305;DHT22;11821;51.456;8.844;2022-11-15T09:54:31;14.30;99.90
23305;DHT22;11821;51.456;8.844;2022-11-15T10:04:58;14.90;99.90
23305;DHT22;11821;51.456;8.844;2022-11-15T10:07:37;15.10;99.90
23305;DHT22;11821;51.456;8.844;2022-11-15T10:10:30;15.30;99.90
23305;DHT22;11821;51.456;8.844;2022-11-15T10:12:59;15.30;99.90
23305;DHT22;11821;51.456;8.844;2022-11-15T10:15:25;15.20;99.90
23305;DHT22;11821;51.456;8.844;2022-11-15T10:18:15;15.30;99.90
23305;DHT22;11821;51.456;8.844;2022-11-15T10:20:58;15.30;99.90
23305;DHT22;11821;51.456;8.844;2022-11-15T10:23:24;15.30;99.90
23305;DHT22;11821;51.456;8.844;2022-11-15T10:25:55;15.40;99.90
23305;DHT22;11821;51.456;8.844;2022-11-15T10:28:28;15.60;99.90
23305;DHT22;11821;51.456;8.844;2022-11-15T10:30:59;15.80;99.90
23305;DHT22;11821;51.456;8.844;2022-11-15T10:33:39;16.10;99.90
23305;DHT22;11821;51.456;8.844;2022-11-15T10:46:47;16.40;99.90
23305;DHT22;11821;51.456;8.844;2022-11-15T10:49:27;16.30;99.90
23305;DHT22;11821;51.456;8.844;2022-11-15T10:57:38;16.20;99.90
23305;DHT22;11821;51.456;8.844;2022-11-15T11:00:26;16.10;99.90
23305;DHT22;11821;51.456;8.844;2022-11-15T11:05:34;16.20;99.90
23305;DHT22;11821;51.456;8.844;2022-11-15T11:08:19;16.20;99.90
23305;DHT22;11821;51.456;8.844;2022-11-15T11:10:57;16.20;99.90
23305;DHT22;11821;51.456;8.844;2022-11-15T11:13:24;16.00;99.90
23305;DHT22;11821;51.456;8.844;2022-11-15T11:24:18;16.00;99.90
23305;DHT22;11821;51.456;8.844;2022-11-15T11:30:06;16.40;99.90
23305;DHT22;11821;51.456;8.844;2022-11-15T11:40:40;16.60;99.90
23305;DHT22;11821;51.456;8.844;2022-11-15T11:43:16;16.50;99.90
23305;DHT22;11821;51.456;8.844;2022-11-15T11:51:16;16.40;99.90
23305;DHT22;11821;51.456;8.844;2022-11-15T11:56:36;16.30;99.90
23305;DHT22;11821;51.456;8.844;2022-11-15T12:01:45;16.70;99.90
23305;DHT22;11821;51.456;8.844;2022-11-15T12:04:24;16.70;99.90
23305;DHT22;11821;51.456;8.844;2022-11-15T12:07:27;16.80;99.90
23305;DHT22;11821;51.456;8.844;2022-11-15T12:13:09;17.00;99.90
23305;DHT22;11821;51.456;8.844;2022-11-15T12:18:15;16.70;99.90
23305;DHT22;11821;51.456;8.844;2022-11-15T12:20:55;16.90;99.90
23305;DHT22;11821;51.456;8.844;2022-11-15T12:23:29;17.00;99.90
23305;DHT22;11821;51.456;8.844;2022-11-15T12:26:09;17.20;99.90
23305;DHT22;11821;51.456;8.844;2022-11-15T12:28:40;17.40;99.90
23305;DHT22;11821;51.456;8.844;2022-11-15T12:31:16;17.60;99.90
23305;DHT22;11821;51.456;8.844;2022-11-15T12:33:46;17.30;99.90
23305;DHT22;11821;51.456;8.844;2022-11-15T12:41:31;17.30;99.90
23305;DHT22;11821;51.456;8.844;2022-11-15T12:43:58;17.50;99.90
23305;DHT22;11821;51.456;8.844;2022-11-15T12:49:00;17.60;99.90
23305;DHT22;11821;51.456;8.844;2022-11-15T12:59:54;17.00;99.90
23305;DHT22;11821;51.456;8.844;2022-11-15T13:02:40;17.00;99.90
23305;DHT22;11821;51.456;8.844;2022-11-15T13:13:01;16.70;99.90
23305;DHT22;11821;51.456;8.844;2022-11-15T13:15:55;16.80;99.90
23305;DHT22;11821;51.456;8.844;2022-11-15T13:18:39;16.70;99.90
23305;DHT22;11821;51.456;8.844;2022-11-15T13:21:20;16.70;99.90
23305;DHT22;11821;51.456;8.844;2022-11-15T13:24:09;16.80;99.90
23305;DHT22;11821;51.456;8.844;2022-11-15T13:26:38;16.80;99.90
23305;DHT22;11821;51.456;8.844;2022-11-15T13:29:15;16.90;99.90
23305;DHT22;11821;51.456;8.844;2022-11-15T13:31:43;16.90;99.90
23305;DHT22;11821;51.456;8.844;2022-11-15T13:34:30;17.00;99.90
23305;DHT22;11821;51.456;8.844;2022-11-15T13:36:59;16.90;99.90
23305;DHT22;11821;51.456;8.844;2022-11-15T13:39:27;17.10;99.90
23305;DHT22;11821;51.456;8.844;2022-11-15T13:41:53;17.20;99.90
23305;DHT22;11821;51.456;8.844;2022-11-15T13:44:38;17.20;99.90
23305;DHT22;11821;51.456;8.844;2022-11-15T13:47:15;17.20;99.90
23305;DHT22;11821;51.456;8.844;2022-11-15T13:49:41;17.30;99.90
23305;DHT22;11821;51.456;8.844;2022-11-15T13:52:12;17.30;99.90
23305;DHT22;11821;51.456;8.844;2022-11-15T13:58:20;17.20;99.90
23305;DHT22;11821;51.456;8.844;2022-11-15T14:00:44;17.20;99.90
23305;DHT22;11821;51.456;8.844;2022-11-15T14:03:21;17.00;99.90
23305;DHT22;11821;51.456;8.844;2022-11-15T14:06:21;17.00;99.90
23305;DHT22;11821;51.456;8.844;2022-11-15T14:09:03;16.80;99.90
23305;DHT22;11821;51.456;8.844;2022-11-15T14:11:30;16.70;99.90
23305;DHT22;11821;51.456;8.844;2022-11-15T14:16:56;16.60;99.90
23305;DHT22;11821;51.456;8.844;2022-11-15T14:22:28;16.50;99.90
23305;DHT22;11821;51.456;8.844;2022-11-15T14:25:20;16.70;99.90
23305;DHT22;11821;51.456;8.844;2022-11-15T14:28:14;16.80;99.90
23305;DHT22;11821;51.456;8.844;2022-11-15T14:30:41;16.60;99.90
23305;DHT22;11821;51.456;8.844;2022-11-15T14:33:37;16.60;99.90
23305;DHT22;11821;51.456;8.844;2022-11-15T14:36:16;16.50;99.90
23305;DHT22;11821;51.456;8.844;2022-11-15T14:38:43;16.60;99.90
23305;DHT22;11821;51.456;8.844;2022-11-15T14:41:24;16.60;99.90
23305;DHT22;11821;51.456;8.844;2022-11-15T14:43:53;16.60;99.90
23305;DHT22;11821;51.456;8.844;2022-11-15T14:46:19;16.60;99.90
23305;DHT22;11821;51.456;8.844;2022-11-15T14:48:45;16.50;99.90
23305;DHT22;11821;51.456;8.844;2022-11-15T14:51:21;16.40;99.90
23305;DHT22;11821;51.456;8.844;2022-11-15T14:53:47;16.50;99.90
23305;DHT22;11821;51.456;8.844;2022-11-15T14:56:14;16.40;99.90
23305;DHT22;11821;51.456;8.844;2022-11-15T14:58:42;16.40;99.90
23305;DHT22;11821;51.456;8.844;2022-11-15T15:01:23;16.40;99.90
23305;DHT22;11821;51.456;8.844;2022-11-15T15:03:49;16.30;99.90
23305;DHT22;11821;51.456;8.844;2022-11-15T15:06:18;16.40;99.90
23305;DHT22;11821;51.456;8.844;2022-11-15T15:08:45;16.40;99.90
23305;DHT22;11821;51.456;8.844;2022-11-15T15:11:25;16.30;99.90
23305;DHT22;11821;51.456;8.844;2022-11-15T15:13:53;16.10;99.90
23305;DHT22;11821;51.456;8.844;2022-11-15T15:16:26;16.10;99.90
23305;DHT22;11821;51.456;8.844;2022-11-15T15:18:52;16.10;99.90
23305;DHT22;11821;51.456;8.844;2022-11-15T15:21:27;16.00;99.90
23305;DHT22;11821;51.456;8.844;2022-11-15T15:23:53;15.90;99.90
23305;DHT22;11821;51.456;8.844;2022-11-15T15:26:21;15.90;99.90
23305;DHT22;11821;51.456;8.844;2022-11-15T15:28:47;15.80;99.90
23305;DHT22;11821;51.456;8.844;2022-11-15T15:31:14;15.80;99.90
23305;DHT22;11821;51.456;8.844;2022-11-15T15:33:40;15.70;99.90
23305;DHT22;11821;51.456;8.844;2022-11-15T15:36:15;15.60;99.90
23305;DHT22;11821;51.456;8.844;2022-11-15T15:38:42;15.60;99.90
23305;DHT22;11821;51.456;8.844;2022-11-15T15:41:12;15.60;99.90
23305;DHT22;11821;51.456;8.844;2022-11-15T15:43:39;15.50;99.90
23305;DHT22;11821;51.456;8.844;2022-11-15T15:46:09;15.40;99.90
23305;DHT22;11821;51.456;8.844;2022-11-15T15:48:36;15.40;99.90
23305;DHT22;11821;51.456;8.844;2022-11-15T15:51:03;15.30;99.90
23305;DHT22;11821;51.456;8.844;2022-11-15T15:53:29;15.20;99.90
23305;DHT22;11821;51.456;8.844;2022-11-15T15:55:57;15.20;99.90
23305;DHT22;11821;51.456;8.844;2022-11-15T15:58:23;15.20;99.90
23305;DHT22;11821;51.456;8.844;2022-11-15T16:00:49;15.20;99.90
23305;DHT22;11821;51.456;8.844;2022-11-15T16:03:16;15.30;99.90
23305;DHT22;11821;51.456;8.844;2022-11-15T16:05:42;15.30;99.90
23305;DHT22;11821;51.456;8.844;2022-11-15T16:08:22;15.30;99.90
23305;DHT22;11821;51.456;8.844;2022-11-15T16:10:49;15.30;99.90
23305;DHT22;11821;51.456;8.844;2022-11-15T16:13:16;15.30;99.90
23305;DHT22;11821;51.456;8.844;2022-11-15T16:15:43;15.30;99.90
23305;DHT22;11821;51.456;8.844;2022-11-15T16:18:15;15.30;99.90
23305;DHT22;11821;51.456;8.844;2022-11-15T16:20:44;15.20;99.90
23305;DHT22;11821;51.456;8.844;2022-11-15T16:23:16;15.20;99.90
23305;DHT22;11821;51.456;8.844;2022-11-15T16:25:54;15.20;99.90
23305;DHT22;11821;51.456;8.844;2022-11-15T16:31:04;15.10;99.90
23305;DHT22;11821;51.456;8.844;2022-11-15T16:33:31;15.00;99.90
23305;DHT22;11821;51.456;8.844;2022-11-15T16:35:57;14.90;99.90
23305;DHT22;11821;51.456;8.844;2022-11-15T16:38:23;14.80;99.90
23305;DHT22;11821;51.456;8.844;2022-11-15T16:40:50;14.90;99.90
23305;DHT22;11821;51.456;8.844;2022-11-15T16:43:16;14.80;99.90
23305;DHT22;11821;51.456;8.844;2022-11-15T16:45:43;14.80;99.90
23305;DHT22;11821;51.456;8.844;2022-11-15T16:48:23;14.80;99.90
23305;DHT22;11821;51.456;8.844;2022-11-15T16:50:50;14.90;99.90
23305;DHT22;11821;51.456;8.844;2022-11-15T16:53:19;14.90;99.90
23305;DHT22;11821;51.456;8.844;2022-11-15T16:55:47;14.90;99.90
23305;DHT22;11821;51.456;8.844;2022-11-15T16:58:14;14.90;99.90
23305;DHT22;11821;51.456;8.844;2022-11-15T17:00:40;14.90;99.90
23305;DHT22;11821;51.456;8.844;2022-11-15T17:03:06;14.90;99.90
23305;DHT22;11821;51.456;8.844;2022-11-15T17:05:32;14.90;99.90
23305;DHT22;11821;51.456;8.844;2022-11-15T17:07:59;14.90;99.90
23305;DHT22;11821;51.456;8.844;2022-11-15T17:10:26;14.80;99.90
23305;DHT22;11821;51.456;8.844;2022-11-15T17:12:53;14.70;99.90
23305;DHT22;11821;51.456;8.844;2022-11-15T17:15:20;14.70;99.90
23305;DHT22;11821;51.456;8.844;2022-11-15T17:17:53;14.60;99.90
23305;DHT22;11821;51.456;8.844;2022-11-15T17:20:22;14.60;99.90
23305;DHT22;11821;51.456;8.844;2022-11-15T17:22:48;14.50;99.90
23305;DHT22;11821;51.456;8.844;2022-11-15T17:25:14;14.50;99.90
23305;DHT22;11821;51.456;8.844;2022-11-15T17:27:41;14.40;99.90
23305;DHT22;11821;51.456;8.844;2022-11-15T17:30:08;14.50;99.90
23305;DHT22;11821;51.456;8.844;2022-11-15T17:32:35;14.50;99.90
23305;DHT22;11821;51.456;8.844;2022-11-15T17:35:05;14.50;99.90
23305;DHT22;11821;51.456;8.844;2022-11-15T17:37:35;14.50;99.90
23305;DHT22;11821;51.456;8.844;2022-11-15T17:40:01;14.50;99.90
23305;DHT22;11821;51.456;8.844;2022-11-15T17:42:27;14.50;99.90
23305;DHT22;11821;51.456;8.844;2022-11-15T17:44:53;14.50;99.90
23305;DHT22;11821;51.456;8.844;2022-11-15T17:47:20;14.40;99.90
23305;DHT22;11821;51.456;8.844;2022-11-15T17:49:46;14.50;99.90
23305;DHT22;11821;51.456;8.844;2022-11-15T17:52:12;14.50;99.90
23305;DHT22;11821;51.456;8.844;2022-11-15T17:54:38;14.50;99.90
23305;DHT22;11821;51.456;8.844;2022-11-15T17:57:04;14.60;99.90
23305;DHT22;11821;51.456;8.844;2022-11-15T17:59:31;14.50;99.90
23305;DHT22;11821;51.456;8.844;2022-11-15T18:01:57;14.30;99.90
23305;DHT22;11821;51.456;8.844;2022-11-15T18:04:23;14.40;99.90
23305;DHT22;11821;51.456;8.844;2022-11-15T18:06:56;14.30;99.90
23305;DHT22;11821;51.456;8.844;2022-11-15T18:09:23;14.40;99.90
23305;DHT22;11821;51.456;8.844;2022-11-15T18:11:50;14.30;99.90
23305;DHT22;11821;51.456;8.844;2022-11-15T18:14:18;14.30;99.90
23305;DHT22;11821;51.456;8.844;2022-11-15T18:16:45;14.20;99.90
23305;DHT22;11821;51.456;8.844;2022-11-15T18:19:11;14.20;99.90
23305;DHT22;11821;51.456;8.844;2022-11-15T18:21:42;14.20;99.90
23305;DHT22;11821;51.456;8.844;2022-11-15T18:24:31;14.10;99.90
23305;DHT22;11821;51.456;8.844;2022-11-15T18:26:59;14.00;99.90
23305;DHT22;11821;51.456;8.844;2022-11-15T18:29:26;14.00;99.90
23305;DHT22;11821;51.456;8.844;2022-11-15T18:31:53;14.10;99.90
23305;DHT22;11821;51.456;8.844;2022-11-15T18:34:25;14.20;99.90
23305;DHT22;11821;51.456;8.844;2022-11-15T18:36:57;14.30;99.90
23305;DHT22;11821;51.456;8.844;2022-11-15T18:39:23;14.30;99.90
23305;DHT22;11821;51.456;8.844;2022-11-15T18:41:49;14.30;99.90
23305;DHT22;11821;51.456;8.844;2022-11-15T18:44:16;14.20;99.90
23305;DHT22;11821;51.456;8.844;2022-11-15T18:46:43;14.10;99.90
23305;DHT22;11821;51.456;8.844;2022-11-15T18:49:14;14.20;99.90
23305;DHT22;11821;51.456;8.844;2022-11-15T18:51:42;14.10;99.90
23305;DHT22;11821;51.456;8.844;2022-11-15T18:54:10;14.10;99.90
23305;DHT22;11821;51.456;8.844;2022-11-15T18:56:36;14.20;99.90
23305;DHT22;11821;51.456;8.844;2022-11-15T18:59:03;14.20;99.90
23305;DHT22;11821;51.456;8.844;2022-11-15T19:01:32;14.30;99.90
23305;DHT22;11821;51.456;8.844;2022-11-15T19:04:06;14.20;99.90
23305;DHT22;11821;51.456;8.844;2022-11-15T19:06:39;14.10;99.90